This demonstration page uses our WeatherBlox Daily Observations layout. Learn more.

36.19886, -115.1175

Hourly Observations for May 12, 2018

Temp ( °F °C ) Dew Point ( °F °C ) Humidity (%) Winds ( mph kmh ) Pressure ( in mb ) Visibility ( mi km ) Precip ( " mm )
12:53 am 00:53 Clear 63 17.2 37 2.8 38 38 NNW 33 54 29.62 1003 10 16.09344 0 0
1:53 am 01:53 Clear 62 16.7 36 2.2 38 38 NNW 30 48 29.65 1004 10 16.09344 0 0
2:53 am 02:53 Mostly Clear 61 16.1 36 2.2 39 39 NNW 28 44 29.68 1005 10 16.09344 0 0
3:53 am 03:53 Mostly Cloudy 61 16.1 35 1.7 38 38 NNW 21 33 29.71 1006 10 16.09344 0 0
4:53 am 04:53 Partly Cloudy 60 15.6 35 1.7 39 39 NNW 17 28 29.71 1006 10 16.09344 0 0
5:53 am 05:53 Sunny 60 15.6 34 1.1 38 38 NNW 20 31 29.74 1007 10 16.09344 0 0
6:53 am 06:53 Sunny 62 16.7 34 1.1 35 35 N 15 24 29.77 1008 10 16.09344 0 0
7:53 am 07:53 Sunny 64 17.8 32 0 30 30 N 10 17 29.8 1009 10 16.09344 0 0
8:53 am 08:53 Sunny 66 18.9 30 -1.1 26 26 N 13 20 29.8 1009 10 16.09344 0 0
9:53 am 09:53 Sunny 68 20 28 -2.2 22 22 N 8 13 29.83 1010 10 16.09344 0 0
10:53 am 10:53 Sunny 71 21.7 28 -2.2 20 20 NW 9 15 29.83 1010 10 16.09344 0 0
11:53 am 11:53 Sunny 71 21.7 28 -2.2 20 20 S 8 13 29.83 1010 10 16.09344 0 0
12:53 pm 12:53 Sunny 75 23.9 26 -3.3 16 16 NE 8 13 29.8 1009 10 16.09344 0 0
1:53 pm 13:53 Sunny 77 25 24 -4.4 14 14 N 7 11 29.8 1009 10 16.09344 0 0
2:53 pm 14:53 Sunny 77 25 20 -6.7 12 12 N 5 7 29.77 1008 10 16.09344 0 0
3:53 pm 15:53 Sunny 79 26.1 13 -10.6 8 8 SSW 13 20 29.74 1007 10 16.09344 0 0
4:53 pm 16:53 Sunny 79 26.1 10 -12.2 7 7 WNW 8 13 29.74 1007 10 16.09344 0 0
5:53 pm 17:53 Sunny 79 26.1 12 -11.1 8 8 Calm 29.74 1007 10 16.09344 0 0
6:53 pm 18:53 Sunny 78 25.6 12 -11.1 8 8 WSW 6 9 29.74 1007 10 16.09344 0 0
7:53 pm 19:53 Clear 78 25.6 13 -10.6 8 8 W 8 13 29.77 1008 10 16.09344 0 0
8:53 pm 20:53 Clear 76 24.4 16 -8.9 10 10 W 6 9 29.77 1008 10 16.09344 0 0
9:53 pm 21:53 Clear 73 22.8 18 -7.8 12 12 Calm 29.8 1009 10 16.09344 0 0
10:53 pm 22:53 Clear 72 22.2 21 -6.1 15 15 W 3 6 29.8 1009 10 16.09344 0 0
11:53 pm 23:53 Clear 68 20 22 -5.6 17 17 N 5 7 29.8 1009 10 16.09344 0 0

Powered by AerisWeather